Date,TemperatureHighF,TemperatureAvgF,TemperatureLowF,DewpointHighF,DewpointAvgF,DewpointLowF,HumidityHigh,HumidityAvg,HumidityLow,PressureMaxIn,PressureMinIn,WindSpeedMaxMPH,WindSpeedAvgMPH,GustSpeedMaxMPH,PrecipitationSumIn
2013-3-1,54.1,47.6,41.7,34.8,30.8,27.6,73,52,39,29.85,29.76,12,5,12,0.00
2013-3-2,52.0,43.8,34.9,37.7,30.2,27.9,81,60,41,29.84,29.76,15,5,15,0.00
2013-3-4,47.3,47.3,47.3,37.0,37.0,37.0,67,67,67,29.99,29.99,0,0,0,0.00
2013-3-5,66.7,66.5,66.0,51.5,50.9,50.3,58,57,57,29.66,29.65,12,5,12,0.02
2013-3-6,57.0,47.9,40.6,49.6,29.4,7.0,76,51,19,29.95,29.67,21,9,21,0.00
2013-3-11,65.1,65.1,64.8,55.9,55.6,55.5,73,71,71,29.76,29.75,4,3,4,0.00
2013-3-12,65.1,65.1,65.1,55.5,55.5,55.5,71,71,71,29.75,29.75,4,4,4,0.00
2013-3-13,67.8,60.3,50.4,34.4,26.6,23.0,54,29,19,30.01,29.88,13,6,13,0.00
2013-3-14,59.9,49.3,39.4,32.1,24.7,21.3,68,40,24,30.18,30.00,13,4,13,0.00
2013-3-15,74.7,52.2,38.1,34.8,30.3,25.0,70,48,21,30.12,29.94,10,2,10,0.00
2013-3-16,74.7,74.7,74.7,33.6,33.6,33.6,21,21,21,29.94,29.94,1,1,1,0.00
2013-3-17,74.7,74.7,74.7,33.6,33.6,33.6,21,21,21,29.94,29.94,1,1,1,0.00
2013-3-18,74.7,74.7,74.7,33.6,33.6,33.6,21,21,21,29.94,29.94,1,1,1,0.00
2013-3-19,74.7,67.1,57.0,60.5,53.9,33.6,96,66,21,29.94,29.70,12,6,12,0.45
2013-3-20,72.0,61.9,45.7,54.3,36.4,23.4,69,42,19,29.90,29.72,4,1,11,0.45
2013-3-21,72.0,47.4,43.9,54.3,32.6,29.6,70,57,49,29.80,29.70,10,5,11,0.00
2013-3-22,48.9,48.9,48.9,31.1,31.1,31.1,50,50,50,29.77,29.77,8,8,8,0.00
2013-3-23,48.9,48.9,48.9,31.1,31.1,31.1,50,50,50,29.77,29.77,8,8,8,0.00
2013-3-24,62.8,60.7,59.4,53.8,53.4,53.2,80,77,72,29.43,29.40,6,6,6,1.35
2013-3-25,61.0,56.3,46.0,38.5,25.6,17.9,61,33,23,29.78,29.57,19,9,19,0.00
2013-3-26,45.9,45.6,45.5,25.0,24.8,24.7,44,44,44,29.89,29.88,8,8,8,0.00